< < Back
Terminal Aerodrome Forecast


Current Version              Previous Versions:   1  2  3  4  5  6  7  8  9  

Terminal Aerodrome Forecast

355
FTUS44 KMRX 220521
TAFCHA
TAF
KCHA 220521Z 2206/2306 00000KT P6SM SCT070 BKN150
     FM220900 00000KT P6SM SCT015 BKN080
     FM221300 14003KT P6SM BKN025
     FM221600 15004KT P6SM VCTS BKN035CB
     FM222000 VRB03KT P6SM SCT040 BKN100
     FM230100 00000KT P6SM FEW045 BKN150=



Latest METAR

906
SAUS80 KWBC 221300
MTRCHA
METAR KCHA 221253Z 00000KT 10SM FEW018 SCT040 BKN250 25/21 A3015 RMK AO2
SLP203 T02500206


USA.gov is the U.S. government's official web portal to all federal, state and local government web resources and services.